Time;durP1;ratioP1;P1;durP2;ratioP2;P2;SDS_P1;SDS_P2;PMS_P1;PMS_P2;Temp;Humidity;BMP_temperature;BMP_pressure;BME280_temperature;BME280_humidity;BME280_pressure;Samples;Min_cycle;Max_cycle;Signal;HPM_P1;HPM_P2
2023/12/29 00:01:23;;;;;;;4.97;2.40;;;;;;;;;;4373244;32;64729;-74
2023/12/29 00:04:09;;;;;;;4.82;2.90;;;;;;;;;;4383255;32;69049;-74
2023/12/29 00:06:56;;;;;;;4.22;2.67;;;;;;;;;;4371832;32;68206;-73
2023/12/29 00:09:43;;;;;;;3.90;2.60;;;;;;;;;;4393693;32;73369;-74
2023/12/29 00:12:30;;;;;;;4.32;2.70;;;;;;;;;;4373857;32;67156;-73
2023/12/29 00:15:19;;;;;;;3.97;2.33;;;;;;;;;;4382446;32;67993;-74
2023/12/29 00:18:05;;;;;;;3.15;2.55;;;;;;;;;;4371943;32;60223;-74
2023/12/29 00:20:52;;;;;;;5.37;2.87;;;;;;;;;;4371574;32;71399;-73
2023/12/29 00:23:39;;;;;;;4.62;2.75;;;;;;;;;;4389168;32;69513;-72
2023/12/29 00:26:26;;;;;;;4.20;2.42;;;;;;;;;;4372400;32;67413;-74
2023/12/29 00:29:15;;;;;;;4.28;2.72;;;;;;;;;;4373078;32;60057;-73
2023/12/29 00:32:02;;;;;;;3.92;2.60;;;;;;;;;;4372549;32;70976;-74
2023/12/29 00:34:48;;;;;;;;;;;;;;;;;;4372925;32;68592;-73
2023/12/29 00:37:35;;;;;;;4.37;2.30;;;;;;;;;;4383579;32;67808;-73
2023/12/29 00:40:21;;;;;;;2.40;1.83;;;;;;;;;;4383097;32;70656;-73
2023/12/29 00:43:08;;;;;;;;;;;;;;;;;;4383184;32;66248;-72
2023/12/29 00:45:54;;;;;;;2.67;2.05;;;;;;;;;;4383670;32;67781;-74
2023/12/29 00:48:41;;;;;;;3.87;2.10;;;;;;;;;;4374113;32;59083;-74
2023/12/29 00:51:28;;;;;;;3.17;2.00;;;;;;;;;;4390116;32;69860;-73
2023/12/29 00:54:15;;;;;;;3.90;2.65;;;;;;;;;;4367017;32;64782;-73
2023/12/29 00:57:01;;;;;;;3.97;2.58;;;;;;;;;;4383480;32;67653;-73
2023/12/29 00:59:49;;;;;;;4.20;2.60;;;;;;;;;;4372495;32;59504;-73
2023/12/29 01:02:35;;;;;;;3.30;2.40;;;;;;;;;;4371897;32;70211;-72
2023/12/29 01:05:23;;;;;;;3.78;2.33;;;;;;;;;;4372397;32;69353;-74
2023/12/29 01:08:10;;;;;;;2.20;1.98;;;;;;;;;;4361240;32;65879;-73
2023/12/29 01:10:57;;;;;;;2.80;2.10;;;;;;;;;;4360912;32;70129;-72
2023/12/29 01:13:44;;;;;;;3.33;2.40;;;;;;;;;;4372056;32;65011;-74
2023/12/29 01:16:30;;;;;;;5.40;2.45;;;;;;;;;;4382619;32;68490;-73
2023/12/29 01:19:17;;;;;;;3.80;2.45;;;;;;;;;;4361012;32;68169;-74
2023/12/29 01:22:04;;;;;;;4.90;2.35;;;;;;;;;;4382690;32;71678;-73
2023/12/29 01:24:51;;;;;;;4.00;2.17;;;;;;;;;;4361794;32;65877;-73
2023/12/29 01:27:38;;;;;;;4.05;2.28;;;;;;;;;;4382856;32;67951;-73
2023/12/29 01:30:25;;;;;;;2.90;1.98;;;;;;;;;;4382958;32;60169;-73
2023/12/29 01:33:12;;;;;;;3.72;2.22;;;;;;;;;;4382076;32;70986;-73
2023/12/29 01:35:59;;;;;;;3.17;2.33;;;;;;;;;;4371336;32;68986;-73
2023/12/29 01:38:46;;;;;;;3.90;2.40;;;;;;;;;;4361072;32;70093;-73
2023/12/29 01:41:33;;;;;;;3.17;2.15;;;;;;;;;;4361725;32;60034;-73
2023/12/29 01:44:21;;;;;;;2.12;1.92;;;;;;;;;;4372019;32;69293;-74
2023/12/29 01:47:16;;;;;;;3.53;2.42;;;;;;;;;;4371746;32;68160;-73
2023/12/29 01:50:04;;;;;;;4.12;2.50;;;;;;;;;;4360538;32;68781;-72
2023/12/29 01:52:50;;;;;;;;;;;;;;;;;;4371516;32;71820;-73
2023/12/29 01:55:38;;;;;;;3.53;2.30;;;;;;;;;;4374193;32;66508;-74
2023/12/29 01:58:48;;;;;;;2.58;1.85;;;;;;;;;;3852896;37;43841;-73
2023/12/29 02:01:41;;;;;;;3.10;2.20;;;;;;;;;;4388231;32;58098;-74
2023/12/29 02:04:29;;;;;;;3.42;2.50;;;;;;;;;;4377474;32;69430;-73
2023/12/29 02:10:00;;;;;;;3.37;2.42;;;;;;;;;;3847167;37;43872;-72
2023/12/29 02:12:49;;;;;;;4.43;2.55;;;;;;;;;;4388613;32;58534;-73
2023/12/29 02:15:36;;;;;;;4.00;2.60;;;;;;;;;;4409829;32;70884;-73
2023/12/29 02:18:25;;;;;;;4.07;2.55;;;;;;;;;;4399075;32;69699;-73
2023/12/29 02:21:12;;;;;;;3.83;2.72;;;;;;;;;;4399101;32;67500;-74
2023/12/29 02:23:59;;;;;;;3.35;2.35;;;;;;;;;;4398954;32;71030;-73
2023/12/29 02:26:50;;;;;;;4.82;2.97;;;;;;;;;;4409557;32;65149;-73
2023/12/29 02:29:40;;;;;;;3.70;2.47;;;;;;;;;;4388071;32;66080;-73
2023/12/29 02:32:28;;;;;;;3.97;2.40;;;;;;;;;;4388427;32;60124;-74
2023/12/29 02:35:21;;;;;;;3.75;2.70;;;;;;;;;;4398642;32;72014;-73
2023/12/29 02:38:08;;;;;;;3.80;2.58;;;;;;;;;;4399073;32;64886;-73
2023/12/29 02:40:56;;;;;;;3.12;2.33;;;;;;;;;;4398751;32;67575;-72
2023/12/29 02:43:43;;;;;;;6.05;2.70;;;;;;;;;;4387550;32;61598;-73
2023/12/29 02:49:13;;;;;;;4.05;2.70;;;;;;;;;;3847465;37;43474;-73
2023/12/29 02:52:01;;;;;;;3.87;2.87;;;;;;;;;;4399272;32;60053;-73
2023/12/29 02:54:47;;;;;;;4.65;2.70;;;;;;;;;;4393761;32;69531;-74
2023/12/29 02:57:34;;;;;;;4.18;2.65;;;;;;;;;;4372450;32;68988;-73
2023/12/29 03:00:21;;;;;;;3.53;2.47;;;;;;;;;;4372575;32;65495;-73
2023/12/29 03:03:08;;;;;;;4.10;2.67;;;;;;;;;;4383668;32;71976;-74
2023/12/29 03:05:54;;;;;;;4.28;2.87;;;;;;;;;;4383069;32;67385;-73
2023/12/29 03:08:41;;;;;;;3.45;2.30;;;;;;;;;;4383435;32;67127;-73
2023/12/29 03:11:28;;;;;;;3.70;2.53;;;;;;;;;;4383735;32;59920;-73
2023/12/29 03:14:16;;;;;;;3.60;2.33;;;;;;;;;;4382955;32;70815;-73
2023/12/29 03:17:03;;;;;;;4.70;2.62;;;;;;;;;;4394235;32;64877;-73
2023/12/29 03:19:50;;;;;;;3.30;2.40;;;;;;;;;;4372221;32;68913;-74
2023/12/29 03:22:36;;;;;;;3.28;2.50;;;;;;;;;;4383936;32;59216;-73
2023/12/29 03:25:23;;;;;;;4.50;2.30;;;;;;;;;;4383617;32;70947;-73
2023/12/29 03:28:10;;;;;;;4.62;2.50;;;;;;;;;;4404679;32;69210;-73
2023/12/29 03:30:57;;;;;;;3.87;2.67;;;;;;;;;;4394005;32;67796;-73
2023/12/29 03:33:43;;;;;;;4.43;3.08;;;;;;;;;;4394112;32;70554;-73
2023/12/29 03:36:35;;;;;;;4.15;2.65;;;;;;;;;;4383550;32;64755;-74
2023/12/29 03:39:23;;;;;;;5.68;3.08;;;;;;;;;;4375345;32;69066;-73
2023/12/29 03:42:10;;;;;;;4.68;2.80;;;;;;;;;;4399653;32;68869;-74
2023/12/29 03:44:54;;;;;;;3.97;2.70;;;;;;;;;;3848814;37;43972;-72
2023/12/29 03:47:42;;;;;;;3.92;2.75;;;;;;;;;;4401441;32;59948;-74
2023/12/29 03:50:29;;;;;;;4.75;3.03;;;;;;;;;;4399551;32;70634;-74
2023/12/29 03:53:16;;;;;;;5.47;3.00;;;;;;;;;;4399627;32;68128;-74
2023/12/29 03:56:12;;;;;;;4.15;3.05;;;;;;;;;;4405008;32;66788;-74
2023/12/29 03:58:59;;;;;;;5.30;3.55;;;;;;;;;;4388390;32;69817;-73
2023/12/29 04:01:46;;;;;;;;;;;;;;;;;;4399926;32;65865;-73
2023/12/29 04:04:36;;;;;;;4.28;3.28;;;;;;;;;;4399356;32;66602;-74
2023/12/29 04:07:23;;;;;;;4.72;3.37;;;;;;;;;;4388076;32;59599;-73
2023/12/29 04:10:10;;;;;;;4.87;3.03;;;;;;;;;;4398076;32;73328;-74
2023/12/29 04:12:57;;;;;;;4.57;2.87;;;;;;;;;;4409446;32;65035;-73
2023/12/29 04:15:43;;;;;;;4.05;3.00;;;;;;;;;;4388262;32;67357;-73
2023/12/29 04:18:30;;;;;;;4.80;3.10;;;;;;;;;;4376947;32;60656;-73
2023/12/29 04:21:17;;;;;;;6.00;3.30;;;;;;;;;;4398485;32;70495;-73
2023/12/29 04:24:04;;;;;;;4.62;2.95;;;;;;;;;;4398575;32;69025;-73
2023/12/29 04:26:51;;;;;;;4.35;2.55;;;;;;;;;;4376786;32;66478;-74
2023/12/29 04:29:37;;;;;;;3.55;2.45;;;;;;;;;;4386867;32;73028;-73
2023/12/29 04:32:25;;;;;;;4.20;2.92;;;;;;;;;;4388467;32;65200;-73
2023/12/29 04:35:14;;;;;;;2.83;2.03;;;;;;;;;;4397923;32;69408;-73
2023/12/29 04:38:01;;;;;;;2.60;1.85;;;;;;;;;;4398565;32;67828;-73
2023/12/29 04:40:48;;;;;;;4.57;2.50;;;;;;;;;;4398446;32;71799;-73
2023/12/29 04:46:00;;;;;;;4.62;2.70;;;;;;;;;;3847509;37;43495;-73
2023/12/29 04:48:48;;;;;;;4.55;2.22;;;;;;;;;;4399610;32;60050;-73
2023/12/29 04:51:35;;;;;;;;;;;;;;;;;;4399289;32;69587;-73
2023/12/29 04:54:22;;;;;;;4.80;2.83;;;;;;;;;;4398962;32;68525;-74
2023/12/29 04:57:08;;;;;;;4.53;2.90;;;;;;;;;;4376876;32;67972;-73
2023/12/29 04:59:55;;;;;;;4.43;2.70;;;;;;;;;;4409497;32;71758;-73
2023/12/29 05:02:42;;;;;;;4.93;3.20;;;;;;;;;;4377076;32;67507;-73
2023/12/29 05:05:29;;;;;;;4.28;2.72;;;;;;;;;;4376875;32;67793;-73
2023/12/29 05:08:15;;;;;;;7.32;3.10;;;;;;;;;;4387704;32;60039;-73
2023/12/29 05:11:02;;;;;;;3.30;2.60;;;;;;;;;;4376800;32;72399;-72
2023/12/29 05:13:48;;;;;;;5.25;3.50;;;;;;;;;;4387301;32;67685;-74
2023/12/29 05:16:36;;;;;;;4.57;2.83;;;;;;;;;;4398248;32;66955;-74
2023/12/29 05:19:22;;;;;;;6.22;2.70;;;;;;;;;;4376555;32;59251;-73
2023/12/29 05:22:11;;;;;;;4.62;2.60;;;;;;;;;;4388630;32;71907;-73
2023/12/29 05:25:22;;;;;;;4.30;2.78;;;;;;;;;;3856415;37;43717;-73
2023/12/29 05:28:08;;;;;;;5.47;2.90;;;;;;;;;;4399867;32;61404;-74
2023/12/29 05:30:55;;;;;;;4.03;2.45;;;;;;;;;;4410147;32;70642;-72
2023/12/29 05:33:40;;;;;;;3.58;2.28;;;;;;;;;;3847398;37;43073;-73
2023/12/29 05:36:27;;;;;;;4.45;3.00;;;;;;;;;;4398902;32;61318;-72
2023/12/29 05:39:14;;;;;;;3.60;2.70;;;;;;;;;;4399252;32;70115;-72
2023/12/29 05:42:01;;;;;;;3.97;2.50;;;;;;;;;;4388397;32;69624;-73
2023/12/29 05:44:47;;;;;;;3.53;2.40;;;;;;;;;;4409752;32;68115;-74
2023/12/29 05:47:34;;;;;;;4.45;3.22;;;;;;;;;;4387477;32;73434;-73
2023/12/29 05:50:21;;;;;;;4.30;3.03;;;;;;;;;;4376823;32;67584;-74
2023/12/29 05:53:08;;;;;;;4.53;2.87;;;;;;;;;;4377173;32;67918;-73
2023/12/29 05:55:55;;;;;;;4.25;2.70;;;;;;;;;;4385463;32;59931;-73
2023/12/29 05:58:42;;;;;;;3.55;2.40;;;;;;;;;;4382723;32;70917;-73
2023/12/29 06:01:29;;;;;;;5.40;2.87;;;;;;;;;;4394353;32;65983;-73
2023/12/29 06:04:16;;;;;;;4.03;2.67;;;;;;;;;;4383876;32;67506;-73
2023/12/29 06:07:03;;;;;;;4.37;2.70;;;;;;;;;;4394439;32;59120;-72
2023/12/29 06:09:50;;;;;;;4.80;2.72;;;;;;;;;;4383195;32;70855;-73
2023/12/29 06:12:37;;;;;;;4.28;3.00;;;;;;;;;;4395379;32;69690;-73
2023/12/29 06:15:24;;;;;;;3.53;2.45;;;;;;;;;;4372814;32;66647;-74
2023/12/29 06:18:11;;;;;;;4.62;2.30;;;;;;;;;;4382352;32;70980;-73
2023/12/29 06:20:58;;;;;;;4.18;2.62;;;;;;;;;;4394360;32;65121;-72
2023/12/29 06:23:45;;;;;;;3.45;2.50;;;;;;;;;;4382257;32;69942;-73
2023/12/29 06:26:42;;;;;;;;;;;;;;;;;;;;;
2023/12/29 06:29:43;;;;;;;3.20;2.12;;;;;;;;;;3869042;36;43454;-73
2023/12/29 06:32:31;;;;;;;2.97;2.45;;;;;;;;;;4403702;32;60344;-72
2023/12/29 06:35:19;;;;;;;3.67;2.35;;;;;;;;;;4414750;32;69393;-73
2023/12/29 06:38:06;;;;;;;3.33;2.20;;;;;;;;;;4403763;32;69454;-73
2023/12/29 06:40:53;;;;;;;2.42;2.15;;;;;;;;;;4400922;32;66928;-72
2023/12/29 06:43:40;;;;;;;3.12;2.25;;;;;;;;;;4390024;32;72277;-75
2023/12/29 06:46:27;;;;;;;3.22;2.45;;;;;;;;;;4404506;32;64853;-73
2023/12/29 06:51:59;;;;;;;2.85;2.17;;;;;;;;;;3707875;38;43550;-73
2023/12/29 06:54:47;;;;;;;2.90;2.10;;;;;;;;;;4299370;33;58032;-74
2023/12/29 06:57:34;;;;;;;2.03;1.80;;;;;;;;;;4302344;33;70208;-73
2023/12/29 07:00:21;;;;;;;3.55;2.30;;;;;;;;;;4284855;33;67162;-73
2023/12/29 07:03:07;;;;;;;3.40;2.60;;;;;;;;;;4283915;33;65362;-74
2023/12/29 07:05:55;;;;;;;3.35;2.25;;;;;;;;;;4311183;33;71578;-73
2023/12/29 07:08:41;;;;;;;;;;;;;;;;;;4294755;33;66515;-72
2023/12/29 07:11:30;;;;;;;3.33;2.33;;;;;;;;;;4297365;33;67070;-73
2023/12/29 07:14:17;;;;;;;3.37;2.40;;;;;;;;;;4274334;33;58760;-74
2023/12/29 07:17:03;;;;;;;3.47;2.60;;;;;;;;;;3847538;37;43866;-73
2023/12/29 07:19:50;;;;;;;4.12;2.60;;;;;;;;;;4410029;32;59875;-72
2023/12/29 07:22:36;;;;;;;3.87;3.15;;;;;;;;;;4399114;32;69476;-73
2023/12/29 07:25:23;;;;;;;3.15;2.47;;;;;;;;;;4398601;32;69724;-72
2023/12/29 07:28:10;;;;;;;3.20;2.22;;;;;;;;;;4398918;32;66752;-72
2023/12/29 07:30:57;;;;;;;3.22;2.28;;;;;;;;;;4409327;32;71732;-72
2023/12/29 07:33:43;;;;;;;3.25;2.28;;;;;;;;;;4398841;32;65074;-73
2023/12/29 07:36:30;;;;;;;3.65;2.28;;;;;;;;;;4398972;32;67033;-73
2023/12/29 07:39:17;;;;;;;4.37;2.45;;;;;;;;;;4398834;32;60102;-73
2023/12/29 07:42:07;;;;;;;3.58;2.80;;;;;;;;;;4387922;32;71246;-72
2023/12/29 07:44:56;;;;;;;3.12;2.10;;;;;;;;;;4409463;32;66243;-73
2023/12/29 07:47:43;;;;;;;4.10;2.45;;;;;;;;;;4388411;32;66661;-74
2023/12/29 07:50:30;;;;;;;;;;;;;;;;;;4377938;32;58991;-73
2023/12/29 07:53:16;;;;;;;3.67;2.20;;;;;;;;;;4409804;32;70086;-73
2023/12/29 07:56:03;;;;;;;3.75;2.35;;;;;;;;;;4371937;32;68197;-72
2023/12/29 07:58:50;;;;;;;3.53;2.50;;;;;;;;;;4383307;32;68012;-72
2023/12/29 08:01:38;;;;;;;3.60;2.20;;;;;;;;;;4382145;32;71163;-73
2023/12/29 08:04:25;;;;;;;2.83;1.98;;;;;;;;;;4382636;32;66930;-73
2023/12/29 08:07:11;;;;;;;3.62;2.28;;;;;;;;;;4361668;32;68100;-73
2023/12/29 08:09:59;;;;;;;2.95;2.45;;;;;;;;;;4372586;32;67379;-72
2023/12/29 08:12:45;;;;;;;;;;;;;;;;;;4395340;32;69580;-73
2023/12/29 08:15:33;;;;;;;3.60;2.70;;;;;;;;;;4383207;32;66031;-73
2023/12/29 08:18:19;;;;;;;3.92;2.53;;;;;;;;;;4395537;32;67974;-72
2023/12/29 08:21:06;;;;;;;3.37;2.20;;;;;;;;;;4384781;32;59417;-72
2023/12/29 08:23:53;;;;;;;3.47;2.60;;;;;;;;;;4383297;32;70461;-72
2023/12/29 08:26:47;;;;;;;3.17;2.45;;;;;;;;;;4369611;32;69610;-72
2023/12/29 08:29:33;;;;;;;3.12;2.45;;;;;;;;;;4384103;32;66554;-72
2023/12/29 08:32:22;;;;;;;3.15;2.30;;;;;;;;;;4363030;32;58892;-72
2023/12/29 08:35:08;;;;;;;4.55;2.72;;;;;;;;;;4362353;32;68988;-72
2023/12/29 08:37:55;;;;;;;;;;;;;;;;;;4352792;32;70472;-72
2023/12/29 08:40:42;;;;;;;4.10;2.87;;;;;;;;;;4374077;32;68209;-73
2023/12/29 08:43:29;;;;;;;2.97;2.08;;;;;;;;;;4373764;32;70853;-73
2023/12/29 08:46:15;;;;;;;3.05;2.30;;;;;;;;;;4374277;32;63633;-72
2023/12/29 08:51:47;;;;;;;3.17;1.87;;;;;;;;;;3854173;37;43084;-73
2023/12/29 08:54:34;;;;;;;4.85;3.40;;;;;;;;;;4406950;32;61212;-72
2023/12/29 08:57:20;;;;;;;5.43;2.83;;;;;;;;;;4390744;32;70612;-71
2023/12/29 09:00:09;;;;;;;3.92;2.37;;;;;;;;;;4410539;32;68296;-73
2023/12/29 09:02:56;;;;;;;4.53;2.58;;;;;;;;;;4388734;32;67807;-73
2023/12/29 09:05:43;;;;;;;3.58;2.25;;;;;;;;;;4412759;32;71772;-73
2023/12/29 09:08:29;;;;;;;3.62;2.50;;;;;;;;;;4401283;32;65208;-73
2023/12/29 09:11:16;;;;;;;4.28;2.55;;;;;;;;;;4410423;32;67242;-73
2023/12/29 09:14:03;;;;;;;5.00;3.00;;;;;;;;;;4377161;32;60137;-72
2023/12/29 09:16:50;;;;;;;4.03;2.40;;;;;;;;;;4409257;32;72127;-73
2023/12/29 09:19:37;;;;;;;4.05;2.80;;;;;;;;;;4410008;32;66252;-73
2023/12/29 09:22:24;;;;;;;4.30;2.50;;;;;;;;;;4386898;32;67650;-73
2023/12/29 09:25:11;;;;;;;2.53;1.87;;;;;;;;;;4387330;32;58051;-72
2023/12/29 09:27:58;;;;;;;2.47;2.00;;;;;;;;;;4386954;32;70907;-73
2023/12/29 09:30:44;;;;;;;3.62;2.45;;;;;;;;;;4387021;32;69733;-72
2023/12/29 09:33:31;;;;;;;4.22;2.60;;;;;;;;;;4398222;32;66599;-73
2023/12/29 09:36:18;;;;;;;3.47;2.50;;;;;;;;;;4387947;32;71715;-73
2023/12/29 09:39:05;;;;;;;4.90;2.40;;;;;;;;;;4398654;32;66352;-72
2023/12/29 09:42:01;;;;;;;3.92;2.25;;;;;;;;;;4376143;32;70379;-73
2023/12/29 09:44:51;;;;;;;3.20;2.47;;;;;;;;;;4398623;32;67977;-73
2023/12/29 09:47:40;;;;;;;3.67;2.20;;;;;;;;;;4387261;32;73452;-73
2023/12/29 09:50:27;;;;;;;3.05;2.50;;;;;;;;;;4408521;32;65892;-73
2023/12/29 09:53:14;;;;;;;3.65;2.33;;;;;;;;;;4387799;32;67450;-74
2023/12/29 09:56:03;;;;;;;3.70;2.28;;;;;;;;;;4402332;32;59295;-73
2023/12/29 09:58:49;;;;;;;2.87;2.20;;;;;;;;;;4380712;32;70291;-73
2023/12/29 10:01:40;;;;;;;4.22;2.50;;;;;;;;;;4396083;32;70373;-72
2023/12/29 10:04:27;;;;;;;3.05;2.25;;;;;;;;;;4377659;32;68342;-73
2023/12/29 10:07:25;;;;;;;4.25;2.62;;;;;;;;;;4388571;32;58985;-73
2023/12/29 10:10:16;;;;;;;3.67;2.78;;;;;;;;;;4379050;32;70888;-73
2023/12/29 10:13:07;;;;;;;3.35;2.47;;;;;;;;;;4399556;32;69440;-72
2023/12/29 10:16:17;;;;;;;4.22;2.33;;;;;;;;;;4387284;32;67881;-72
2023/12/29 10:19:40;;;;;;;3.60;2.70;;;;;;;;;;4376294;32;72004;-73
2023/12/29 10:22:53;;;;;;;3.45;2.45;;;;;;;;;;4376149;32;68255;-72
2023/12/29 10:25:40;;;;;;;3.92;2.75;;;;;;;;;;4387544;32;67633;-73
2023/12/29 10:28:27;;;;;;;4.47;2.75;;;;;;;;;;4387808;32;59411;-73
2023/12/29 10:34:31;;;;;;;5.18;2.90;;;;;;;;;;3847511;37;43591;-72
2023/12/29 10:37:22;;;;;;;;;;;;;;;;;;4402603;32;59304;-72
2023/12/29 10:40:09;;;;;;;3.10;2.00;;;;;;;;;;4377513;32;71953;-73
2023/12/29 10:42:57;;;;;;;;;;;;;;;;;;4377432;32;69515;-72
2023/12/29 10:45:44;;;;;;;3.85;2.28;;;;;;;;;;4398375;32;68946;-72
2023/12/29 10:48:31;;;;;;;2.67;1.92;;;;;;;;;;4398234;32;72320;-72
2023/12/29 10:51:29;;;;;;;4.28;2.85;;;;;;;;;;4398995;32;66030;-73
2023/12/29 10:54:26;;;;;;;3.87;3.00;;;;;;;;;;4387109;32;68431;-73
2023/12/29 10:57:13;;;;;;;5.20;2.95;;;;;;;;;;4399198;32;60358;-72
2023/12/29 11:00:00;;;;;;;3.33;2.53;;;;;;;;;;4398464;32;70822;-73
2023/12/29 11:02:54;;;;;;;3.75;2.65;;;;;;;;;;4398665;32;64836;-72
2023/12/29 11:05:42;;;;;;;4.50;2.83;;;;;;;;;;4387376;32;67998;-72
2023/12/29 11:08:28;;;;;;;4.60;2.92;;;;;;;;;;4398744;32;59173;-72
2023/12/29 11:11:15;;;;;;;4.32;2.97;;;;;;;;;;4398730;32;69466;-71
2023/12/29 11:14:03;;;;;;;4.18;2.90;;;;;;;;;;4398339;32;69749;-72
2023/12/29 11:16:52;;;;;;;4.53;3.03;;;;;;;;;;4398652;32;67245;-73
2023/12/29 11:19:39;;;;;;;2.17;1.08;;;;;;;;;;4398388;32;70869;-72
2023/12/29 11:22:32;;;;;;;5.65;3.35;;;;;;;;;;4387537;32;67134;-73
2023/12/29 11:25:18;;;;;;;4.22;2.85;;;;;;;;;;4397700;32;68851;-72
2023/12/29 11:28:08;;;;;;;3.83;2.62;;;;;;;;;;4386929;32;68358;-72
2023/12/29 11:30:55;;;;;;;4.78;3.42;;;;;;;;;;4398470;32;70714;-72
2023/12/29 11:33:46;;;;;;;4.60;3.15;;;;;;;;;;4397577;32;67978;-72
2023/12/29 11:36:35;;;;;;;5.00;3.28;;;;;;;;;;4387554;32;67387;-73
2023/12/29 11:39:27;;;;;;;5.12;3.25;;;;;;;;;;4398777;32;58913;-73
2023/12/29 11:42:22;;;;;;;5.20;3.20;;;;;;;;;;4398044;32;70519;-73
2023/12/29 11:45:36;;;;;;;6.35;3.47;;;;;;;;;;4377974;32;69437;-72
2023/12/29 11:48:55;;;;;;;5.20;3.20;;;;;;;;;;4388290;32;66560;-72
2023/12/29 11:51:44;;;;;;;4.87;3.30;;;;;;;;;;4377625;32;60255;-73
2023/12/29 11:54:32;;;;;;;5.82;3.80;;;;;;;;;;4387971;32;70667;-73
2023/12/29 11:57:32;;;;;;;5.20;3.70;;;;;;;;;;4398912;32;68525;-73
2023/12/29 12:00:19;;;;;;;6.40;3.97;;;;;;;;;;4376843;32;68122;-72
2023/12/29 12:03:15;;;;;;;5.35;3.62;;;;;;;;;;4377210;32;72768;-73
2023/12/29 12:06:03;;;;;;;5.37;3.75;;;;;;;;;;4377986;32;66258;-72
2023/12/29 12:08:49;;;;;;;5.75;3.85;;;;;;;;;;4388060;32;67327;-73
2023/12/29 12:11:36;;;;;;;5.37;3.72;;;;;;;;;;4376489;32;60183;-72
2023/12/29 12:14:46;;;;;;;7.10;4.20;;;;;;;;;;4387469;32;70038;-73
2023/12/29 12:17:36;;;;;;;6.37;4.35;;;;;;;;;;4387712;32;64714;-73
2023/12/29 12:20:23;;;;;;;5.72;3.83;;;;;;;;;;4368343;32;68691;-73
2023/12/29 12:23:16;;;;;;;5.43;3.95;;;;;;;;;;4390647;32;59692;-72
2023/12/29 12:26:05;;;;;;;6.28;4.25;;;;;;;;;;4375906;32;71500;-73
2023/12/29 12:28:54;;;;;;;6.05;3.62;;;;;;;;;;4375929;32;68910;-73
2023/12/29 12:31:57;;;;;;;5.65;3.47;;;;;;;;;;4386717;32;67765;-72
2023/12/29 12:34:44;;;;;;;8.00;4.20;;;;;;;;;;4376030;32;69057;-73
2023/12/29 12:37:31;;;;;;;7.53;4.37;;;;;;;;;;4376809;32;66306;-72
2023/12/29 12:40:27;;;;;;;;;;;;;;;;;;4398992;32;66835;-71
2023/12/29 12:43:17;;;;;;;6.20;4.15;;;;;;;;;;4376856;32;67859;-73
2023/12/29 12:46:04;;;;;;;7.72;4.93;;;;;;;;;;4387071;32;70950;-72
2023/12/29 12:48:51;;;;;;;8.45;4.97;;;;;;;;;;4365669;32;66596;-72
2023/12/29 12:51:38;;;;;;;7.40;4.43;;;;;;;;;;4365078;32;67183;-73
2023/12/29 12:54:25;;;;;;;7.22;4.80;;;;;;;;;;4402184;32;58930;-73
2023/12/29 12:57:12;;;;;;;6.53;3.78;;;;;;;;;;4379250;32;70721;-74
2023/12/29 13:02:35;;;;;;;5.78;3.90;;;;;;;;;;3827368;37;43896;-72
2023/12/29 13:05:23;;;;;;;6.75;4.10;;;;;;;;;;4375272;32;59106;-73
2023/12/29 13:08:11;;;;;;;6.90;4.40;;;;;;;;;;4383859;32;70600;-72
2023/12/29 13:11:14;;;;;;;6.72;4.35;;;;;;;;;;3801142;37;43463;-71
2023/12/29 13:14:02;;;;;;;5.97;3.87;;;;;;;;;;4369274;32;60624;-72
2023/12/29 13:16:49;;;;;;;6.57;4.05;;;;;;;;;;4346864;32;71334;-73
2023/12/29 13:19:36;;;;;;;7.75;3.90;;;;;;;;;;4358293;32;69420;-73
2023/12/29 13:22:23;;;;;;;5.82;3.45;;;;;;;;;;4368733;32;65979;-73
2023/12/29 13:25:12;;;;;;;6.45;4.28;;;;;;;;;;4368636;32;71822;-73
2023/12/29 13:27:59;;;;;;;6.25;4.03;;;;;;;;;;4368361;32;65709;-72
2023/12/29 13:30:45;;;;;;;6.28;4.40;;;;;;;;;;4368172;32;67494;-73
2023/12/29 13:33:45;;;;;;;7.45;4.57;;;;;;;;;;4346500;32;61517;-73
2023/12/29 13:36:50;;;;;;;7.78;4.40;;;;;;;;;;4368163;32;71787;-72
2023/12/29 13:40:06;;;;;;;7.37;4.68;;;;;;;;;;4356777;32;65934;-72
2023/12/29 13:42:57;;;;;;;6.62;4.47;;;;;;;;;;4365706;32;67168;-72
2023/12/29 13:45:44;;;;;;;5.87;4.37;;;;;;;;;;4357612;32;59914;-74
2023/12/29 13:48:32;;;;;;;8.07;4.87;;;;;;;;;;4367328;32;71451;-72
2023/12/29 13:51:26;;;;;;;6.62;4.43;;;;;;;;;;4367470;32;70343;-73
2023/12/29 13:54:16;;;;;;;7.25;4.80;;;;;;;;;;4346493;32;67249;-74
2023/12/29 13:57:02;;;;;;;7.00;4.22;;;;;;;;;;4346334;32;71687;-72
2023/12/29 13:59:49;;;;;;;7.65;4.93;;;;;;;;;;3847210;37;43624;-72
2023/12/29 14:02:36;;;;;;;7.28;4.37;;;;;;;;;;4399280;32;60406;-72
2023/12/29 14:05:36;;;;;;;7.50;4.70;;;;;;;;;;4398876;32;69273;-73
2023/12/29 14:08:41;;;;;;;5.85;3.67;;;;;;;;;;4378434;32;69980;-73
2023/12/29 14:11:30;;;;;;;8.00;4.70;;;;;;;;;;4399220;32;68094;-73
2023/12/29 14:14:26;;;;;;;7.97;4.55;;;;;;;;;;4409649;32;70645;-73
2023/12/29 14:17:21;;;;;;;7.77;5.17;;;;;;;;;;4409551;32;66268;-73
2023/12/29 14:20:09;;;;;;;7.00;4.60;;;;;;;;;;4387556;32;67551;-72
2023/12/29 14:23:03;;;;;;;6.78;4.78;;;;;;;;;;4388162;32;59842;-73
2023/12/29 14:25:50;;;;;;;7.25;4.55;;;;;;;;;;4387953;32;70582;-73
2023/12/29 14:28:36;;;;;;;7.00;4.62;;;;;;;;;;4398878;32;64961;-73
2023/12/29 14:31:23;;;;;;;7.57;4.68;;;;;;;;;;4387239;32;68114;-73
2023/12/29 14:34:10;;;;;;;;;;;;;;;;;;4388174;32;61797;-72
2023/12/29 14:36:57;;;;;;;7.05;5.00;;;;;;;;;;4398954;32;69948;-73
2023/12/29 14:39:51;;;;;;;8.00;4.68;;;;;;;;;;4398496;32;68389;-73
2023/12/29 14:42:39;;;;;;;7.07;4.70;;;;;;;;;;4376597;32;68328;-73
2023/12/29 14:45:29;;;;;;;7.30;5.10;;;;;;;;;;4409155;32;71924;-74
2023/12/29 14:48:15;;;;;;;6.95;4.07;;;;;;;;;;4409396;32;65886;-73
2023/12/29 14:51:03;;;;;;;7.70;4.82;;;;;;;;;;4409144;32;68746;-72
2023/12/29 14:53:50;;;;;;;5.82;4.12;;;;;;;;;;4387835;32;67726;-73
2023/12/29 14:56:38;;;;;;;7.20;4.37;;;;;;;;;;4371879;32;72959;-73
2023/12/29 14:59:25;;;;;;;7.43;4.65;;;;;;;;;;4371533;32;66344;-72
2023/12/29 15:04:56;;;;;;;7.45;4.55;;;;;;;;;;3868718;36;43832;-73
2023/12/29 15:07:41;;;;;;;8.05;5.20;;;;;;;;;;3847448;37;43403;-73
2023/12/29 15:10:28;;;;;;;7.00;4.47;;;;;;;;;;4398801;32;61353;-72
2023/12/29 15:13:12;;;;;;;6.40;4.82;;;;;;;;;;3847397;37;43564;-73
2023/12/29 15:16:00;;;;;;;7.28;4.70;;;;;;;;;;4388676;32;60016;-73
2023/12/29 15:18:47;;;;;;;7.47;4.30;;;;;;;;;;4398907;32;70993;-73
2023/12/29 15:21:34;;;;;;;7.35;4.65;;;;;;;;;;4409751;32;69867;-72
2023/12/29 15:24:21;;;;;;;7.43;4.78;;;;;;;;;;4387539;32;67280;-73
2023/12/29 15:27:08;;;;;;;7.65;4.95;;;;;;;;;;4399074;32;71500;-72
2023/12/29 15:29:55;;;;;;;6.22;4.40;;;;;;;;;;4388187;32;65671;-73
2023/12/29 15:32:41;;;;;;;6.00;4.32;;;;;;;;;;4387425;32;66702;-73
2023/12/29 15:35:28;;;;;;;6.47;4.30;;;;;;;;;;4399320;32;59868;-73
2023/12/29 15:38:19;;;;;;;6.00;4.10;;;;;;;;;;4388131;32;70778;-73
2023/12/29 15:41:05;;;;;;;6.72;3.83;;;;;;;;;;4409799;32;66264;-73
2023/12/29 15:43:52;;;;;;;6.55;3.80;;;;;;;;;;4398802;32;66716;-74
2023/12/29 15:46:39;;;;;;;6.37;4.05;;;;;;;;;;4398934;32;59866;-73
2023/12/29 15:49:25;;;;;;;8.23;4.47;;;;;;;;;;4387793;32;69734;-73
2023/12/29 15:52:12;;;;;;;8.13;4.68;;;;;;;;;;4410452;32;69037;-73
2023/12/29 15:54:59;;;;;;;6.45;4.32;;;;;;;;;;4373088;32;67495;-72
2023/12/29 15:57:45;;;;;;;6.78;3.97;;;;;;;;;;4393514;32;72311;-73
2023/12/29 16:00:34;;;;;;;7.32;4.70;;;;;;;;;;4372733;32;67425;-73
2023/12/29 16:03:21;;;;;;;6.30;3.95;;;;;;;;;;4388280;32;68765;-74
2023/12/29 16:06:07;;;;;;;8.25;4.45;;;;;;;;;;4400114;32;68621;-73
2023/12/29 16:08:56;;;;;;;5.43;3.83;;;;;;;;;;4394409;32;70868;-73
2023/12/29 16:11:43;;;;;;;7.35;4.40;;;;;;;;;;4393452;32;65378;-74
2023/12/29 16:14:30;;;;;;;5.75;4.20;;;;;;;;;;4383418;32;67776;-73
2023/12/29 16:17:19;;;;;;;5.78;3.62;;;;;;;;;;4394038;32;60365;-73
2023/12/29 16:20:09;;;;;;;7.07;4.37;;;;;;;;;;4393400;32;70386;-73
2023/12/29 16:22:56;;;;;;;6.03;3.78;;;;;;;;;;4379522;32;69370;-73
2023/12/29 16:25:43;;;;;;;5.72;3.42;;;;;;;;;;4373040;32;67556;-73
2023/12/29 16:28:30;;;;;;;6.90;4.12;;;;;;;;;;4383721;32;60443;-73
2023/12/29 16:34:02;;;;;;;5.57;3.50;;;;;;;;;;3869355;36;43391;-73
2023/12/29 16:36:57;;;;;;;5.62;3.53;;;;;;;;;;3869442;36;43500;-73
2023/12/29 16:39:44;;;;;;;4.93;3.17;;;;;;;;;;4415362;32;60258;-73
2023/12/29 16:42:31;;;;;;;5.53;3.40;;;;;;;;;;4390215;32;71620;-73
2023/12/29 16:45:18;;;;;;;4.90;2.90;;;;;;;;;;4393005;32;69433;-73
2023/12/29 16:48:05;;;;;;;5.45;3.22;;;;;;;;;;4379652;32;68526;-72
2023/12/29 16:50:51;;;;;;;5.10;3.40;;;;;;;;;;4379253;32;72264;-72
2023/12/29 16:53:38;;;;;;;5.15;3.20;;;;;;;;;;4403570;32;65670;-73
2023/12/29 16:56:26;;;;;;;4.72;3.12;;;;;;;;;;4403843;32;66729;-72
2023/12/29 16:59:14;;;;;;;6.53;3.40;;;;;;;;;;4403799;32;60673;-73
2023/12/29 17:02:07;;;;;;;5.28;3.03;;;;;;;;;;4390373;32;72541;-73
2023/12/29 17:04:54;;;;;;;4.28;3.03;;;;;;;;;;4403981;32;65538;-72
2023/12/29 17:07:41;;;;;;;4.70;2.97;;;;;;;;;;4400940;32;67948;-73
2023/12/29 17:10:27;;;;;;;5.20;3.20;;;;;;;;;;4392719;32;60167;-73
2023/12/29 17:13:14;;;;;;;4.90;3.17;;;;;;;;;;4389940;32;71391;-73
2023/12/29 17:16:03;;;;;;;5.65;3.60;;;;;;;;;;4400294;32;69576;-73
2023/12/29 17:18:50;;;;;;;4.70;2.97;;;;;;;;;;4389872;32;69038;-73
2023/12/29 17:21:37;;;;;;;5.00;3.37;;;;;;;;;;4413694;32;71625;-72